sensor_id;sensor_type;location;lat;lon;timestamp;P1;durP1;ratioP1;P2;durP2;ratioP2
24771;SDS011;12870;52.274;9.754;2023-04-03T00:00:55;0.30;;;0.30;;
24771;SDS011;12870;52.274;9.754;2023-04-03T00:03:21;0.30;;;0.30;;
24771;SDS011;12870;52.274;9.754;2023-04-03T00:05:47;0.30;;;0.30;;
24771;SDS011;12870;52.274;9.754;2023-04-03T00:08:13;0.30;;;0.30;;
24771;SDS011;12870;52.274;9.754;2023-04-03T00:10:39;0.30;;;0.30;;
24771;SDS011;12870;52.274;9.754;2023-04-03T00:13:05;0.30;;;0.30;;
24771;SDS011;12870;52.274;9.754;2023-04-03T00:15:32;0.30;;;0.30;;
24771;SDS011;12870;52.274;9.754;2023-04-03T00:18:00;0.30;;;0.30;;
24771;SDS011;12870;52.274;9.754;2023-04-03T00:20:26;0.30;;;0.30;;
24771;SDS011;12870;52.274;9.754;2023-04-03T00:22:52;0.37;;;0.37;;
24771;SDS011;12870;52.274;9.754;2023-04-03T00:25:19;0.30;;;0.30;;
24771;SDS011;12870;52.274;9.754;2023-04-03T00:27:44;0.30;;;0.30;;
24771;SDS011;12870;52.274;9.754;2023-04-03T00:30:11;0.30;;;0.30;;
24771;SDS011;12870;52.274;9.754;2023-04-03T00:32:39;0.30;;;0.30;;
24771;SDS011;12870;52.274;9.754;2023-04-03T00:35:05;0.30;;;0.30;;
24771;SDS011;12870;52.274;9.754;2023-04-03T00:37:31;0.30;;;0.30;;
24771;SDS011;12870;52.274;9.754;2023-04-03T00:39:57;0.30;;;0.30;;
24771;SDS011;12870;52.274;9.754;2023-04-03T00:42:23;0.30;;;0.30;;
24771;SDS011;12870;52.274;9.754;2023-04-03T00:47:21;0.30;;;0.30;;
24771;SDS011;12870;52.274;9.754;2023-04-03T00:49:47;0.30;;;0.30;;
24771;SDS011;12870;52.274;9.754;2023-04-03T00:52:15;0.30;;;0.30;;
24771;SDS011;12870;52.274;9.754;2023-04-03T00:54:43;0.30;;;0.30;;
24771;SDS011;12870;52.274;9.754;2023-04-03T00:57:10;0.30;;;0.30;;
24771;SDS011;12870;52.274;9.754;2023-04-03T00:59:40;0.30;;;0.30;;
24771;SDS011;12870;52.274;9.754;2023-04-03T01:02:09;0.30;;;0.30;;
24771;SDS011;12870;52.274;9.754;2023-04-03T01:04:36;0.30;;;0.30;;
24771;SDS011;12870;52.274;9.754;2023-04-03T01:07:05;0.30;;;0.30;;
24771;SDS011;12870;52.274;9.754;2023-04-03T01:09:35;0.30;;;0.30;;
24771;SDS011;12870;52.274;9.754;2023-04-03T01:12:15;0.30;;;0.30;;
24771;SDS011;12870;52.274;9.754;2023-04-03T01:14:53;0.30;;;0.30;;
24771;SDS011;12870;52.274;9.754;2023-04-03T01:22:42;0.30;;;0.30;;
24771;SDS011;12870;52.274;9.754;2023-04-03T01:25:26;0.30;;;0.30;;
24771;SDS011;12870;52.274;9.754;2023-04-03T01:27:52;0.30;;;0.30;;
24771;SDS011;12870;52.274;9.754;2023-04-03T01:30:19;0.30;;;0.30;;
24771;SDS011;12870;52.274;9.754;2023-04-03T01:32:46;0.30;;;0.30;;
24771;SDS011;12870;52.274;9.754;2023-04-03T01:35:12;0.30;;;0.30;;
24771;SDS011;12870;52.274;9.754;2023-04-03T01:37:38;0.30;;;0.30;;
24771;SDS011;12870;52.274;9.754;2023-04-03T01:40:04;0.30;;;0.30;;
24771;SDS011;12870;52.274;9.754;2023-04-03T01:42:30;0.30;;;0.30;;
24771;SDS011;12870;52.274;9.754;2023-04-03T01:44:56;0.30;;;0.30;;
24771;SDS011;12870;52.274;9.754;2023-04-03T01:47:22;0.30;;;0.30;;
24771;SDS011;12870;52.274;9.754;2023-04-03T01:49:48;0.37;;;0.37;;
24771;SDS011;12870;52.274;9.754;2023-04-03T01:52:13;0.30;;;0.30;;
24771;SDS011;12870;52.274;9.754;2023-04-03T01:54:39;0.30;;;0.30;;
24771;SDS011;12870;52.274;9.754;2023-04-03T01:57:05;0.30;;;0.30;;
24771;SDS011;12870;52.274;9.754;2023-04-03T01:59:30;0.30;;;0.30;;
24771;SDS011;12870;52.274;9.754;2023-04-03T02:01:56;0.40;;;0.40;;
24771;SDS011;12870;52.274;9.754;2023-04-03T02:04:22;0.37;;;0.37;;
24771;SDS011;12870;52.274;9.754;2023-04-03T02:06:47;0.40;;;0.40;;
24771;SDS011;12870;52.274;9.754;2023-04-03T02:09:13;0.30;;;0.30;;
24771;SDS011;12870;52.274;9.754;2023-04-03T02:11:39;0.40;;;0.40;;
24771;SDS011;12870;52.274;9.754;2023-04-03T02:14:05;0.30;;;0.30;;
24771;SDS011;12870;52.274;9.754;2023-04-03T02:16:31;0.30;;;0.30;;
24771;SDS011;12870;52.274;9.754;2023-04-03T02:18:57;0.30;;;0.30;;
24771;SDS011;12870;52.274;9.754;2023-04-03T02:21:23;0.30;;;0.30;;
24771;SDS011;12870;52.274;9.754;2023-04-03T02:23:49;0.30;;;0.30;;
24771;SDS011;12870;52.274;9.754;2023-04-03T02:26:15;0.30;;;0.30;;
24771;SDS011;12870;52.274;9.754;2023-04-03T02:28:42;0.37;;;0.37;;
24771;SDS011;12870;52.274;9.754;2023-04-03T02:31:08;0.40;;;0.40;;
24771;SDS011;12870;52.274;9.754;2023-04-03T02:33:35;0.30;;;0.30;;
24771;SDS011;12870;52.274;9.754;2023-04-03T02:36:02;0.30;;;0.30;;
24771;SDS011;12870;52.274;9.754;2023-04-03T02:38:31;0.40;;;0.40;;
24771;SDS011;12870;52.274;9.754;2023-04-03T02:41:00;0.33;;;0.33;;
24771;SDS011;12870;52.274;9.754;2023-04-03T02:43:30;0.40;;;0.40;;
24771;SDS011;12870;52.274;9.754;2023-04-03T02:45:56;0.40;;;0.40;;
24771;SDS011;12870;52.274;9.754;2023-04-03T02:48:22;0.30;;;0.30;;
24771;SDS011;12870;52.274;9.754;2023-04-03T02:50:48;0.30;;;0.30;;
24771;SDS011;12870;52.274;9.754;2023-04-03T02:53:14;0.40;;;0.40;;
24771;SDS011;12870;52.274;9.754;2023-04-03T02:55:41;0.40;;;0.40;;
24771;SDS011;12870;52.274;9.754;2023-04-03T02:58:07;0.40;;;0.40;;
24771;SDS011;12870;52.274;9.754;2023-04-03T03:00:33;0.30;;;0.30;;
24771;SDS011;12870;52.274;9.754;2023-04-03T03:02:59;0.30;;;0.30;;
24771;SDS011;12870;52.274;9.754;2023-04-03T03:05:24;0.30;;;0.30;;
24771;SDS011;12870;52.274;9.754;2023-04-03T03:07:51;0.40;;;0.40;;
24771;SDS011;12870;52.274;9.754;2023-04-03T03:10:17;0.33;;;0.33;;
24771;SDS011;12870;52.274;9.754;2023-04-03T03:12:42;0.30;;;0.30;;
24771;SDS011;12870;52.274;9.754;2023-04-03T03:15:08;0.37;;;0.37;;
24771;SDS011;12870;52.274;9.754;2023-04-03T03:17:34;0.40;;;0.40;;
24771;SDS011;12870;52.274;9.754;2023-04-03T03:20:01;0.30;;;0.30;;
24771;SDS011;12870;52.274;9.754;2023-04-03T03:22:27;0.40;;;0.40;;
24771;SDS011;12870;52.274;9.754;2023-04-03T03:24:53;0.30;;;0.30;;
24771;SDS011;12870;52.274;9.754;2023-04-03T03:27:19;0.30;;;0.30;;
24771;SDS011;12870;52.274;9.754;2023-04-03T03:29:45;0.30;;;0.30;;
24771;SDS011;12870;52.274;9.754;2023-04-03T03:32:11;0.37;;;0.37;;
24771;SDS011;12870;52.274;9.754;2023-04-03T03:34:37;0.40;;;0.40;;
24771;SDS011;12870;52.274;9.754;2023-04-03T03:37:03;0.40;;;0.40;;
24771;SDS011;12870;52.274;9.754;2023-04-03T03:39:29;0.40;;;0.40;;
24771;SDS011;12870;52.274;9.754;2023-04-03T03:41:55;0.40;;;0.40;;
24771;SDS011;12870;52.274;9.754;2023-04-03T03:44:20;0.30;;;0.30;;
24771;SDS011;12870;52.274;9.754;2023-04-03T03:46:46;0.30;;;0.30;;
24771;SDS011;12870;52.274;9.754;2023-04-03T03:49:12;0.40;;;0.40;;
24771;SDS011;12870;52.274;9.754;2023-04-03T03:51:38;0.30;;;0.30;;
24771;SDS011;12870;52.274;9.754;2023-04-03T03:54:04;0.30;;;0.30;;
24771;SDS011;12870;52.274;9.754;2023-04-03T03:56:30;0.33;;;0.33;;
24771;SDS011;12870;52.274;9.754;2023-04-03T03:58:56;0.40;;;0.40;;
24771;SDS011;12870;52.274;9.754;2023-04-03T04:01:22;0.30;;;0.30;;
24771;SDS011;12870;52.274;9.754;2023-04-03T04:03:49;0.30;;;0.30;;
24771;SDS011;12870;52.274;9.754;2023-04-03T04:06:15;0.40;;;0.40;;
24771;SDS011;12870;52.274;9.754;2023-04-03T04:08:41;0.40;;;0.40;;
24771;SDS011;12870;52.274;9.754;2023-04-03T04:11:07;0.30;;;0.30;;
24771;SDS011;12870;52.274;9.754;2023-04-03T04:13:32;0.30;;;0.30;;
24771;SDS011;12870;52.274;9.754;2023-04-03T04:15:58;0.30;;;0.30;;
24771;SDS011;12870;52.274;9.754;2023-04-03T04:18:24;0.30;;;0.30;;
24771;SDS011;12870;52.274;9.754;2023-04-03T04:20:50;0.40;;;0.40;;
24771;SDS011;12870;52.274;9.754;2023-04-03T04:23:16;0.30;;;0.30;;
24771;SDS011;12870;52.274;9.754;2023-04-03T04:25:46;0.30;;;0.30;;
24771;SDS011;12870;52.274;9.754;2023-04-03T04:28:13;0.40;;;0.40;;
24771;SDS011;12870;52.274;9.754;2023-04-03T04:30:39;0.40;;;0.40;;
24771;SDS011;12870;52.274;9.754;2023-04-03T04:33:04;0.40;;;0.40;;
24771;SDS011;12870;52.274;9.754;2023-04-03T04:35:30;0.30;;;0.30;;
24771;SDS011;12870;52.274;9.754;2023-04-03T04:37:56;0.40;;;0.40;;
24771;SDS011;12870;52.274;9.754;2023-04-03T04:40:21;0.30;;;0.30;;
24771;SDS011;12870;52.274;9.754;2023-04-03T04:42:47;0.40;;;0.40;;
24771;SDS011;12870;52.274;9.754;2023-04-03T04:45:13;0.30;;;0.30;;
24771;SDS011;12870;52.274;9.754;2023-04-03T04:47:40;0.40;;;0.40;;
24771;SDS011;12870;52.274;9.754;2023-04-03T04:50:06;0.40;;;0.40;;
24771;SDS011;12870;52.274;9.754;2023-04-03T04:52:32;0.30;;;0.30;;
24771;SDS011;12870;52.274;9.754;2023-04-03T04:54:58;0.30;;;0.30;;
24771;SDS011;12870;52.274;9.754;2023-04-03T04:57:24;0.40;;;0.40;;
24771;SDS011;12870;52.274;9.754;2023-04-03T04:59:49;0.40;;;0.40;;
24771;SDS011;12870;52.274;9.754;2023-04-03T05:02:15;0.40;;;0.40;;
24771;SDS011;12870;52.274;9.754;2023-04-03T05:04:41;0.40;;;0.40;;
24771;SDS011;12870;52.274;9.754;2023-04-03T05:07:06;0.37;;;0.37;;
24771;SDS011;12870;52.274;9.754;2023-04-03T05:09:32;0.30;;;0.30;;
24771;SDS011;12870;52.274;9.754;2023-04-03T05:11:58;0.40;;;0.40;;
24771;SDS011;12870;52.274;9.754;2023-04-03T05:14:23;0.40;;;0.40;;
24771;SDS011;12870;52.274;9.754;2023-04-03T05:16:49;0.40;;;0.40;;
24771;SDS011;12870;52.274;9.754;2023-04-03T05:19:19;0.40;;;0.40;;
24771;SDS011;12870;52.274;9.754;2023-04-03T05:21:48;0.40;;;0.40;;
24771;SDS011;12870;52.274;9.754;2023-04-03T05:24:14;0.40;;;0.40;;
24771;SDS011;12870;52.274;9.754;2023-04-03T05:26:41;0.30;;;0.30;;
24771;SDS011;12870;52.274;9.754;2023-04-03T05:29:07;0.40;;;0.40;;
24771;SDS011;12870;52.274;9.754;2023-04-03T05:31:33;0.40;;;0.40;;
24771;SDS011;12870;52.274;9.754;2023-04-03T05:33:59;0.40;;;0.40;;
24771;SDS011;12870;52.274;9.754;2023-04-03T05:36:25;0.40;;;0.40;;
24771;SDS011;12870;52.274;9.754;2023-04-03T05:38:51;0.40;;;0.40;;
24771;SDS011;12870;52.274;9.754;2023-04-03T05:41:18;0.40;;;0.40;;
24771;SDS011;12870;52.274;9.754;2023-04-03T05:43:45;0.40;;;0.40;;
24771;SDS011;12870;52.274;9.754;2023-04-03T05:46:11;0.40;;;0.40;;
24771;SDS011;12870;52.274;9.754;2023-04-03T05:48:39;0.40;;;0.40;;
24771;SDS011;12870;52.274;9.754;2023-04-03T05:51:05;0.40;;;0.40;;
24771;SDS011;12870;52.274;9.754;2023-04-03T05:53:33;0.40;;;0.40;;
24771;SDS011;12870;52.274;9.754;2023-04-03T05:56:04;0.40;;;0.40;;
24771;SDS011;12870;52.274;9.754;2023-04-03T05:58:30;0.40;;;0.40;;
24771;SDS011;12870;52.274;9.754;2023-04-03T06:00:55;0.40;;;0.40;;
24771;SDS011;12870;52.274;9.754;2023-04-03T06:03:22;0.30;;;0.30;;
24771;SDS011;12870;52.274;9.754;2023-04-03T06:05:48;0.40;;;0.40;;
24771;SDS011;12870;52.274;9.754;2023-04-03T06:08:13;0.40;;;0.40;;
24771;SDS011;12870;52.274;9.754;2023-04-03T06:10:39;0.30;;;0.30;;
24771;SDS011;12870;52.274;9.754;2023-04-03T06:13:05;0.30;;;0.30;;
24771;SDS011;12870;52.274;9.754;2023-04-03T06:15:31;0.30;;;0.30;;
24771;SDS011;12870;52.274;9.754;2023-04-03T06:17:57;0.40;;;0.40;;
24771;SDS011;12870;52.274;9.754;2023-04-03T06:20:22;0.30;;;0.30;;
24771;SDS011;12870;52.274;9.754;2023-04-03T06:22:49;0.40;;;0.40;;
24771;SDS011;12870;52.274;9.754;2023-04-03T06:25:16;0.30;;;0.30;;
24771;SDS011;12870;52.274;9.754;2023-04-03T06:27:43;0.30;;;0.30;;
24771;SDS011;12870;52.274;9.754;2023-04-03T06:30:10;0.40;;;0.40;;
24771;SDS011;12870;52.274;9.754;2023-04-03T06:32:37;0.40;;;0.40;;
24771;SDS011;12870;52.274;9.754;2023-04-03T06:35:03;0.40;;;0.40;;
24771;SDS011;12870;52.274;9.754;2023-04-03T06:37:29;0.30;;;0.30;;
24771;SDS011;12870;52.274;9.754;2023-04-03T06:39:55;0.30;;;0.30;;
24771;SDS011;12870;52.274;9.754;2023-04-03T06:42:21;0.30;;;0.30;;
24771;SDS011;12870;52.274;9.754;2023-04-03T06:44:47;0.30;;;0.30;;
24771;SDS011;12870;52.274;9.754;2023-04-03T06:47:14;0.30;;;0.30;;
24771;SDS011;12870;52.274;9.754;2023-04-03T06:49:41;0.30;;;0.30;;
24771;SDS011;12870;52.274;9.754;2023-04-03T06:52:07;0.30;;;0.30;;
24771;SDS011;12870;52.274;9.754;2023-04-03T06:54:33;0.30;;;0.30;;
24771;SDS011;12870;52.274;9.754;2023-04-03T06:56:59;0.30;;;0.30;;
24771;SDS011;12870;52.274;9.754;2023-04-03T06:59:25;0.30;;;0.30;;
24771;SDS011;12870;52.274;9.754;2023-04-03T07:01:51;0.30;;;0.30;;
24771;SDS011;12870;52.274;9.754;2023-04-03T07:04:17;0.30;;;0.30;;
24771;SDS011;12870;52.274;9.754;2023-04-03T07:06:45;0.30;;;0.30;;
24771;SDS011;12870;52.274;9.754;2023-04-03T07:09:12;0.30;;;0.30;;
24771;SDS011;12870;52.274;9.754;2023-04-03T07:11:40;0.30;;;0.30;;
24771;SDS011;12870;52.274;9.754;2023-04-03T07:14:06;0.30;;;0.30;;
24771;SDS011;12870;52.274;9.754;2023-04-03T07:16:33;0.30;;;0.30;;
24771;SDS011;12870;52.274;9.754;2023-04-03T07:19:00;0.30;;;0.30;;
24771;SDS011;12870;52.274;9.754;2023-04-03T07:21:26;0.30;;;0.30;;
24771;SDS011;12870;52.274;9.754;2023-04-03T07:23:52;0.30;;;0.30;;
24771;SDS011;12870;52.274;9.754;2023-04-03T07:26:18;0.30;;;0.30;;
24771;SDS011;12870;52.274;9.754;2023-04-03T07:28:45;0.30;;;0.30;;
24771;SDS011;12870;52.274;9.754;2023-04-03T07:31:12;0.30;;;0.30;;
24771;SDS011;12870;52.274;9.754;2023-04-03T07:33:38;0.30;;;0.30;;
24771;SDS011;12870;52.274;9.754;2023-04-03T07:36:05;0.30;;;0.30;;
24771;SDS011;12870;52.274;9.754;2023-04-03T07:38:34;0.30;;;0.30;;
24771;SDS011;12870;52.274;9.754;2023-04-03T07:41:01;0.30;;;0.30;;
24771;SDS011;12870;52.274;9.754;2023-04-03T07:43:27;0.30;;;0.30;;
24771;SDS011;12870;52.274;9.754;2023-04-03T07:45:53;0.30;;;0.30;;
24771;SDS011;12870;52.274;9.754;2023-04-03T07:48:23;0.30;;;0.30;;
24771;SDS011;12870;52.274;9.754;2023-04-03T07:50:50;0.30;;;0.30;;
24771;SDS011;12870;52.274;9.754;2023-04-03T07:53:17;0.30;;;0.30;;
24771;SDS011;12870;52.274;9.754;2023-04-03T07:55:45;0.30;;;0.30;;
24771;SDS011;12870;52.274;9.754;2023-04-03T07:58:16;0.30;;;0.30;;
24771;SDS011;12870;52.274;9.754;2023-04-03T08:00:43;0.30;;;0.30;;
24771;SDS011;12870;52.274;9.754;2023-04-03T08:03:10;0.30;;;0.30;;
24771;SDS011;12870;52.274;9.754;2023-04-03T08:05:37;0.30;;;0.30;;
24771;SDS011;12870;52.274;9.754;2023-04-03T08:08:04;0.30;;;0.30;;
24771;SDS011;12870;52.274;9.754;2023-04-03T08:10:31;0.30;;;0.30;;
24771;SDS011;12870;52.274;9.754;2023-04-03T08:12:57;0.30;;;0.30;;
24771;SDS011;12870;52.274;9.754;2023-04-03T08:15:22;0.30;;;0.30;;
24771;SDS011;12870;52.274;9.754;2023-04-03T08:17:48;0.30;;;0.30;;
24771;SDS011;12870;52.274;9.754;2023-04-03T08:20:14;0.30;;;0.30;;
24771;SDS011;12870;52.274;9.754;2023-04-03T08:22:40;0.30;;;0.30;;
24771;SDS011;12870;52.274;9.754;2023-04-03T08:25:05;0.30;;;0.30;;
24771;SDS011;12870;52.274;9.754;2023-04-03T08:27:31;0.30;;;0.30;;
24771;SDS011;12870;52.274;9.754;2023-04-03T08:29:57;0.30;;;0.30;;
24771;SDS011;12870;52.274;9.754;2023-04-03T08:32:23;0.30;;;0.30;;
24771;SDS011;12870;52.274;9.754;2023-04-03T08:34:49;0.30;;;0.30;;
24771;SDS011;12870;52.274;9.754;2023-04-03T08:37:14;0.30;;;0.30;;
24771;SDS011;12870;52.274;9.754;2023-04-03T08:39:41;0.30;;;0.30;;
24771;SDS011;12870;52.274;9.754;2023-04-03T08:45:16;0.30;;;0.30;;
24771;SDS011;12870;52.274;9.754;2023-04-03T08:50:19;0.20;;;0.20;;
24771;SDS011;12870;52.274;9.754;2023-04-03T08:52:49;0.30;;;0.30;;
24771;SDS011;12870;52.274;9.754;2023-04-03T08:55:28;0.27;;;0.27;;
24771;SDS011;12870;52.274;9.754;2023-04-03T08:58:01;0.30;;;0.30;;
24771;SDS011;12870;52.274;9.754;2023-04-03T09:00:50;0.30;;;0.30;;
24771;SDS011;12870;52.274;9.754;2023-04-03T09:03:17;0.30;;;0.30;;
24771;SDS011;12870;52.274;9.754;2023-04-03T09:10:59;0.30;;;0.30;;
24771;SDS011;12870;52.274;9.754;2023-04-03T09:14:02;0.20;;;0.20;;
24771;SDS011;12870;52.274;9.754;2023-04-03T09:21:58;0.20;;;0.20;;
24771;SDS011;12870;52.274;9.754;2023-04-03T09:24:27;0.23;;;0.23;;
24771;SDS011;12870;52.274;9.754;2023-04-03T09:26:58;0.20;;;0.20;;
24771;SDS011;12870;52.274;9.754;2023-04-03T09:29:29;0.30;;;0.30;;
24771;SDS011;12870;52.274;9.754;2023-04-03T09:32:02;0.20;;;0.20;;
24771;SDS011;12870;52.274;9.754;2023-04-03T09:34:47;0.30;;;0.30;;
24771;SDS011;12870;52.274;9.754;2023-04-03T09:37:38;0.30;;;0.30;;
24771;SDS011;12870;52.274;9.754;2023-04-03T09:45:47;0.20;;;0.20;;
24771;SDS011;12870;52.274;9.754;2023-04-03T09:50:59;0.30;;;0.30;;
24771;SDS011;12870;52.274;9.754;2023-04-03T09:55:54;0.20;;;0.20;;
24771;SDS011;12870;52.274;9.754;2023-04-03T09:59:03;0.20;;;0.20;;
24771;SDS011;12870;52.274;9.754;2023-04-03T10:01:21;0.20;;;0.20;;
24771;SDS011;12870;52.274;9.754;2023-04-03T10:04:11;0.20;;;0.20;;
24771;SDS011;12870;52.274;9.754;2023-04-03T10:06:38;0.20;;;0.20;;
24771;SDS011;12870;52.274;9.754;2023-04-03T10:09:28;0.20;;;0.20;;
24771;SDS011;12870;52.274;9.754;2023-04-03T10:14:53;0.20;;;0.20;;
24771;SDS011;12870;52.274;9.754;2023-04-03T10:19:53;0.20;;;0.20;;
24771;SDS011;12870;52.274;9.754;2023-04-03T10:26:07;0.20;;;0.20;;
24771;SDS011;12870;52.274;9.754;2023-04-03T10:28:35;0.20;;;0.20;;
24771;SDS011;12870;52.274;9.754;2023-04-03T10:42:48;0.20;;;0.20;;
24771;SDS011;12870;52.274;9.754;2023-04-03T10:48:14;0.22;;;0.22;;
24771;SDS011;12870;52.274;9.754;2023-04-03T10:50:48;0.20;;;0.20;;
24771;SDS011;12870;52.274;9.754;2023-04-03T10:53:21;0.20;;;0.20;;
24771;SDS011;12870;52.274;9.754;2023-04-03T10:56:05;0.20;;;0.20;;
24771;SDS011;12870;52.274;9.754;2023-04-03T10:58:40;0.30;;;0.30;;
24771;SDS011;12870;52.274;9.754;2023-04-03T11:01:21;0.20;;;0.20;;
24771;SDS011;12870;52.274;9.754;2023-04-03T11:03:59;0.20;;;0.20;;
24771;SDS011;12870;52.274;9.754;2023-04-03T11:06:34;0.20;;;0.20;;
24771;SDS011;12870;52.274;9.754;2023-04-03T11:09:11;0.20;;;0.20;;
24771;SDS011;12870;52.274;9.754;2023-04-03T11:11:43;0.20;;;0.20;;
24771;SDS011;12870;52.274;9.754;2023-04-03T11:14:12;0.20;;;0.20;;
24771;SDS011;12870;52.274;9.754;2023-04-03T11:16:48;0.20;;;0.20;;
24771;SDS011;12870;52.274;9.754;2023-04-03T11:20:06;0.20;;;0.20;;
24771;SDS011;12870;52.274;9.754;2023-04-03T11:22:27;0.20;;;0.20;;
24771;SDS011;12870;52.274;9.754;2023-04-03T11:24:57;0.20;;;0.20;;
24771;SDS011;12870;52.274;9.754;2023-04-03T11:27:23;0.20;;;0.20;;
24771;SDS011;12870;52.274;9.754;2023-04-03T11:29:52;0.20;;;0.20;;
24771;SDS011;12870;52.274;9.754;2023-04-03T11:35:06;0.20;;;0.20;;
24771;SDS011;12870;52.274;9.754;2023-04-03T11:42:39;0.30;;;0.30;;
24771;SDS011;12870;52.274;9.754;2023-04-03T12:14:24;0.20;;;0.20;;
24771;SDS011;12870;52.274;9.754;2023-04-03T12:26:28;0.20;;;0.20;;
24771;SDS011;12870;52.274;9.754;2023-04-03T12:28:57;0.20;;;0.20;;
24771;SDS011;12870;52.274;9.754;2023-04-03T12:31:25;0.20;;;0.20;;
24771;SDS011;12870;52.274;9.754;2023-04-03T12:40:01;0.20;;;0.20;;
24771;SDS011;12870;52.274;9.754;2023-04-03T12:43:12;0.20;;;0.20;;
24771;SDS011;12870;52.274;9.754;2023-04-03T12:48:26;0.20;;;0.20;;
24771;SDS011;12870;52.274;9.754;2023-04-03T12:50:54;0.20;;;0.20;;
24771;SDS011;12870;52.274;9.754;2023-04-03T12:53:26;0.20;;;0.20;;
24771;SDS011;12870;52.274;9.754;2023-04-03T12:56:18;0.20;;;0.20;;
24771;SDS011;12870;52.274;9.754;2023-04-03T12:58:43;0.20;;;0.20;;
24771;SDS011;12870;52.274;9.754;2023-04-03T13:01:10;0.20;;;0.20;;
24771;SDS011;12870;52.274;9.754;2023-04-03T13:03:44;0.20;;;0.20;;
24771;SDS011;12870;52.274;9.754;2023-04-03T13:06:19;0.20;;;0.20;;
24771;SDS011;12870;52.274;9.754;2023-04-03T13:08:53;0.20;;;0.20;;
24771;SDS011;12870;52.274;9.754;2023-04-03T13:11:22;0.20;;;0.20;;
24771;SDS011;12870;52.274;9.754;2023-04-03T13:14:00;0.20;;;0.20;;
24771;SDS011;12870;52.274;9.754;2023-04-03T13:16:30;0.20;;;0.20;;
24771;SDS011;12870;52.274;9.754;2023-04-03T13:18:57;0.20;;;0.20;;
24771;SDS011;12870;52.274;9.754;2023-04-03T13:21:28;0.20;;;0.20;;
24771;SDS011;12870;52.274;9.754;2023-04-03T13:24:00;0.20;;;0.20;;
24771;SDS011;12870;52.274;9.754;2023-04-03T13:26:28;0.20;;;0.20;;
24771;SDS011;12870;52.274;9.754;2023-04-03T13:29:07;0.20;;;0.20;;
24771;SDS011;12870;52.274;9.754;2023-04-03T13:31:43;0.20;;;0.20;;
24771;SDS011;12870;52.274;9.754;2023-04-03T13:36:37;0.20;;;0.20;;
24771;SDS011;12870;52.274;9.754;2023-04-03T13:39:06;0.20;;;0.20;;
24771;SDS011;12870;52.274;9.754;2023-04-03T13:41:36;0.20;;;0.20;;
24771;SDS011;12870;52.274;9.754;2023-04-03T13:46:47;0.20;;;0.20;;
24771;SDS011;12870;52.274;9.754;2023-04-03T13:49:21;0.20;;;0.20;;
24771;SDS011;12870;52.274;9.754;2023-04-03T13:51:47;0.20;;;0.20;;
24771;SDS011;12870;52.274;9.754;2023-04-03T13:54:18;0.20;;;0.20;;
24771;SDS011;12870;52.274;9.754;2023-04-03T13:56:47;0.20;;;0.20;;
24771;SDS011;12870;52.274;9.754;2023-04-03T13:59:24;0.20;;;0.20;;
24771;SDS011;12870;52.274;9.754;2023-04-03T14:04:28;0.20;;;0.20;;
24771;SDS011;12870;52.274;9.754;2023-04-03T14:06:57;0.20;;;0.20;;
24771;SDS011;12870;52.274;9.754;2023-04-03T14:09:24;0.20;;;0.20;;
24771;SDS011;12870;52.274;9.754;2023-04-03T14:11:55;0.20;;;0.20;;
24771;SDS011;12870;52.274;9.754;2023-04-03T14:14:29;0.20;;;0.20;;
24771;SDS011;12870;52.274;9.754;2023-04-03T14:16:58;0.20;;;0.20;;
24771;SDS011;12870;52.274;9.754;2023-04-03T14:19:27;0.20;;;0.20;;
24771;SDS011;12870;52.274;9.754;2023-04-03T14:21:57;0.20;;;0.20;;
24771;SDS011;12870;52.274;9.754;2023-04-03T14:24:24;0.20;;;0.20;;
24771;SDS011;12870;52.274;9.754;2023-04-03T14:26:51;0.20;;;0.20;;
24771;SDS011;12870;52.274;9.754;2023-04-03T14:29:19;0.20;;;0.20;;
24771;SDS011;12870;52.274;9.754;2023-04-03T14:31:45;0.20;;;0.20;;
24771;SDS011;12870;52.274;9.754;2023-04-03T14:34:13;0.20;;;0.20;;
24771;SDS011;12870;52.274;9.754;2023-04-03T14:36:40;0.20;;;0.20;;
24771;SDS011;12870;52.274;9.754;2023-04-03T14:39:10;0.20;;;0.20;;
24771;SDS011;12870;52.274;9.754;2023-04-03T14:41:42;0.20;;;0.20;;
24771;SDS011;12870;52.274;9.754;2023-04-03T14:44:08;0.20;;;0.20;;
24771;SDS011;12870;52.274;9.754;2023-04-03T14:46:35;0.20;;;0.20;;
24771;SDS011;12870;52.274;9.754;2023-04-03T14:49:12;0.20;;;0.20;;
24771;SDS011;12870;52.274;9.754;2023-04-03T14:51:43;0.20;;;0.20;;
24771;SDS011;12870;52.274;9.754;2023-04-03T14:54:13;0.20;;;0.20;;
24771;SDS011;12870;52.274;9.754;2023-04-03T14:56:41;0.20;;;0.20;;
24771;SDS011;12870;52.274;9.754;2023-04-03T14:59:11;0.20;;;0.20;;
24771;SDS011;12870;52.274;9.754;2023-04-03T15:01:38;0.20;;;0.20;;
24771;SDS011;12870;52.274;9.754;2023-04-03T15:04:13;0.20;;;0.20;;
24771;SDS011;12870;52.274;9.754;2023-04-03T15:06:41;0.20;;;0.20;;
24771;SDS011;12870;52.274;9.754;2023-04-03T15:09:17;0.20;;;0.20;;
24771;SDS011;12870;52.274;9.754;2023-04-03T15:11:45;0.20;;;0.20;;
24771;SDS011;12870;52.274;9.754;2023-04-03T15:14:12;0.20;;;0.20;;
24771;SDS011;12870;52.274;9.754;2023-04-03T15:16:37;0.20;;;0.20;;
24771;SDS011;12870;52.274;9.754;2023-04-03T15:19:03;0.20;;;0.20;;
24771;SDS011;12870;52.274;9.754;2023-04-03T15:21:29;0.20;;;0.20;;
24771;SDS011;12870;52.274;9.754;2023-04-03T15:23:55;0.20;;;0.20;;
24771;SDS011;12870;52.274;9.754;2023-04-03T15:26:20;0.20;;;0.20;;
24771;SDS011;12870;52.274;9.754;2023-04-03T15:28:46;0.20;;;0.20;;
24771;SDS011;12870;52.274;9.754;2023-04-03T15:31:12;0.20;;;0.20;;
24771;SDS011;12870;52.274;9.754;2023-04-03T15:33:37;0.20;;;0.20;;
24771;SDS011;12870;52.274;9.754;2023-04-03T15:36:04;0.20;;;0.20;;
24771;SDS011;12870;52.274;9.754;2023-04-03T15:38:30;0.20;;;0.20;;
24771;SDS011;12870;52.274;9.754;2023-04-03T15:40:56;0.20;;;0.20;;
24771;SDS011;12870;52.274;9.754;2023-04-03T15:43:22;0.20;;;0.20;;
24771;SDS011;12870;52.274;9.754;2023-04-03T15:45:48;0.20;;;0.20;;
24771;SDS011;12870;52.274;9.754;2023-04-03T15:48:16;0.20;;;0.20;;
24771;SDS011;12870;52.274;9.754;2023-04-03T15:50:42;0.20;;;0.20;;
24771;SDS011;12870;52.274;9.754;2023-04-03T15:53:08;0.20;;;0.20;;
24771;SDS011;12870;52.274;9.754;2023-04-03T15:55:35;0.20;;;0.20;;
24771;SDS011;12870;52.274;9.754;2023-04-03T15:58:01;0.20;;;0.20;;
24771;SDS011;12870;52.274;9.754;2023-04-03T16:00:27;0.20;;;0.20;;
24771;SDS011;12870;52.274;9.754;2023-04-03T16:03:01;0.20;;;0.20;;
24771;SDS011;12870;52.274;9.754;2023-04-03T16:05:31;0.20;;;0.20;;
24771;SDS011;12870;52.274;9.754;2023-04-03T16:07:57;0.20;;;0.20;;
24771;SDS011;12870;52.274;9.754;2023-04-03T16:10:25;0.20;;;0.20;;
24771;SDS011;12870;52.274;9.754;2023-04-03T16:12:51;0.20;;;0.20;;
24771;SDS011;12870;52.274;9.754;2023-04-03T16:15:17;0.20;;;0.20;;
24771;SDS011;12870;52.274;9.754;2023-04-03T16:17:42;0.20;;;0.20;;
24771;SDS011;12870;52.274;9.754;2023-04-03T16:20:08;0.20;;;0.20;;
24771;SDS011;12870;52.274;9.754;2023-04-03T16:22:35;0.20;;;0.20;;
24771;SDS011;12870;52.274;9.754;2023-04-03T16:25:03;0.20;;;0.20;;
24771;SDS011;12870;52.274;9.754;2023-04-03T16:27:30;0.20;;;0.20;;
24771;SDS011;12870;52.274;9.754;2023-04-03T16:29:56;0.20;;;0.20;;
24771;SDS011;12870;52.274;9.754;2023-04-03T16:32:22;0.20;;;0.20;;
24771;SDS011;12870;52.274;9.754;2023-04-03T16:34:49;0.20;;;0.20;;
24771;SDS011;12870;52.274;9.754;2023-04-03T16:37:16;0.20;;;0.20;;
24771;SDS011;12870;52.274;9.754;2023-04-03T16:39:42;0.20;;;0.20;;
24771;SDS011;12870;52.274;9.754;2023-04-03T16:42:08;0.20;;;0.20;;
24771;SDS011;12870;52.274;9.754;2023-04-03T16:44:34;0.20;;;0.20;;
24771;SDS011;12870;52.274;9.754;2023-04-03T16:47:00;0.20;;;0.20;;
24771;SDS011;12870;52.274;9.754;2023-04-03T16:49:27;0.20;;;0.20;;
24771;SDS011;12870;52.274;9.754;2023-04-03T16:51:57;0.20;;;0.20;;
24771;SDS011;12870;52.274;9.754;2023-04-03T16:54:23;0.20;;;0.20;;
24771;SDS011;12870;52.274;9.754;2023-04-03T16:56:49;0.20;;;0.20;;